Private Wetterstation Wechselburg
Wetterdaten: Sonntag, 04.09.2016
Datum Zeit Temp. +2m Bodentemp. Temp.+5cm Temp. Wind Windchill X Diff Temp. Feuchte +2m Feuchte +5cm Sonnenschein Luftdruck Regen Wind Richtung Richtung Sonnenschein Taupunkt Windchill Windben
04.09.2016 00:00 15,9 C 23,4 C 16,8 C 15,9 C 15,9 C 0,0 C 78 % 79 % 0 % 1014,6 hPa 0,0 l/m 0,0 km/h (0 Bft) S 180 0 min 12,1 C 15,9 C 0,0 km/h (0 Bft)
04.09.2016 00:05 15,8 C 23,4 C 16,7 C 15,9 C 15,9 C 0,1 C 78 % 79 % 0 % 1014,2 hPa 0,0 l/m 0,0 km/h (0 Bft) SW 225 0 min 12,0 C 15,9 C 0,0 km/h (0 Bft)
04.09.2016 00:12 15,8 C 23,4 C 16,8 C 15,8 C 15,8 C 0,0 C 78 % 80 % 0 % 1014,2 hPa 0,0 l/m 0,0 km/h (0 Bft) N 0 0 min 12,0 C 15,8 C 0,0 km/h (0 Bft)
04.09.2016 00:20 15,7 C 23,4 C 16,8 C 15,9 C 15,9 C 0,2 C 78 % 79 % 0 % 1014,2 hPa 0,0 l/m 0,0 km/h (0 Bft) W-SW 247 0 min 11,9 C 15,9 C 0,0 km/h (0 Bft)
04.09.2016 00:25 15,7 C 23,3 C 16,8 C 15,8 C 15,8 C 0,1 C 78 % 79 % 0 % 1014,2 hPa 0,0 l/m 0,0 km/h (0 Bft) W-SW 247 0 min 11,9 C 15,8 C 0,0 km/h (0 Bft)
04.09.2016 00:30 15,6 C 23,3 C 16,7 C 15,8 C 15,8 C 0,2 C 78 % 79 % 0 % 1014,2 hPa 0,0 l/m 0,0 km/h (0 Bft) W-SW 247 0 min 11,8 C 15,8 C 0,0 km/h (0 Bft)
04.09.2016 00:35 15,7 C 23,3 C 16,7 C 15,7 C 15,7 C 0,0 C 79 % 80 % 0 % 1014,2 hPa 0,0 l/m 0,0 km/h (0 Bft) W-SW 247 0 min 12,1 C 15,7 C 0,0 km/h (0 Bft)
04.09.2016 00:40 15,6 C 23,3 C 16,6 C 15,6 C 15,6 C 0,0 C 78 % 79 % 0 % 1014,2 hPa 0,0 l/m 0,0 km/h (0 Bft) W-SW 247 0 min 11,8 C 15,6 C 0,0 km/h (0 Bft)
04.09.2016 00:45 15,5 C 23,3 C 16,5 C 15,6 C 15,6 C 0,1 C 78 % 80 % 0 % 1014,1 hPa 0,0 l/m 0,0 km/h (0 Bft) W-SW 247 0 min 11,7 C 15,6 C 0,0 km/h (0 Bft)
04.09.2016 00:50 15,4 C 23,3 C 16,6 C 15,6 C 15,6 C 0,2 C 78 % 80 % 0 % 1014,1 hPa 0,0 l/m 0,0 km/h (0 Bft) W-SW 247 0 min 11,6 C 15,6 C 0,0 km/h (0 Bft)
04.09.2016 00:55 15,4 C 23,3 C 16,5 C 15,6 C 15,6 C 0,2 C 79 % 80 % 0 % 1014,1 hPa 0,0 l/m 0,0 km/h (0 Bft) O-SO 112 0 min 11,8 C 15,6 C 0,0 km/h (0 Bft)
04.09.2016 01:00 15,3 C 23,3 C 16,5 C 15,6 C 15,6 C 0,3 C 79 % 80 % 0 % 1014,1 hPa 0,0 l/m 0,0 km/h (0 Bft) O-SO 112 0 min 11,7 C 15,6 C 0,0 km/h (0 Bft)
04.09.2016 01:05 15,3 C 23,3 C 16,7 C 15,5 C 15,5 C 0,2 C 79 % 80 % 0 % 1013,8 hPa 0,0 l/m 0,0 km/h (0 Bft) O-SO 112 0 min 11,7 C 15,5 C 0,0 km/h (0 Bft)
04.09.2016 01:10 15,3 C 23,3 C 16,7 C 15,5 C 15,5 C 0,2 C 79 % 80 % 0 % 1013,8 hPa 0,0 l/m 0,0 km/h (0 Bft) O-SO 112 0 min 11,7 C 15,5 C 0,0 km/h (0 Bft)
04.09.2016 01:15 15,2 C 23,3 C 16,5 C 15,5 C 15,5 C 0,3 C 79 % 80 % 0 % 1013,8 hPa 0,0 l/m 0,0 km/h (0 Bft) O-SO 112 0 min 11,6 C 15,5 C 0,0 km/h (0 Bft)
04.09.2016 01:20 15,2 C 23,3 C 16,4 C 15,5 C 15,5 C 0,3 C 79 % 80 % 0 % 1013,8 hPa 0,0 l/m 0,0 km/h (0 Bft) O-SO 112 0 min 11,6 C 15,5 C 0,0 km/h (0 Bft)
04.09.2016 01:25 15,1 C 23,3 C 16,3 C 15,5 C 15,5 C 0,4 C 80 % 80 % 0 % 1013,6 hPa 0,0 l/m 0,0 km/h (0 Bft) O 90 0 min 11,7 C 15,5 C 0,0 km/h (0 Bft)
04.09.2016 01:30 15,1 C 23,3 C 16,2 C 15,4 C 15,4 C 0,3 C 80 % 81 % 0 % 1013,6 hPa 0,0 l/m 0,0 km/h (0 Bft) NW 315 0 min 11,7 C 15,4 C 0,0 km/h (0 Bft)
04.09.2016 01:35 15,1 C 23,3 C 16,2 C 15,4 C 15,4 C 0,3 C 80 % 81 % 0 % 1013,6 hPa 0,0 l/m 0,0 km/h (0 Bft) NW 315 0 min 11,7 C 15,4 C 0,0 km/h (0 Bft)
04.09.2016 01:40 15,1 C 23,3 C 16,2 C 15,5 C 15,5 C 0,4 C 80 % 81 % 0 % 1013,6 hPa 0,0 l/m 0,0 km/h (0 Bft) NW 315 0 min 11,7 C 15,5 C 0,0 km/h (0 Bft)
04.09.2016 01:45 15,1 C 23,3 C 16,3 C 15,8 C 15,8 C 0,7 C 80 % 81 % 0 % 1013,6 hPa 0,0 l/m 0,0 km/h (0 Bft) NW 315 0 min 11,7 C 15,8 C 0,0 km/h (0 Bft)
04.09.2016 01:50 15,0 C 23,3 C 16,3 C 15,9 C 15,9 C 0,9 C 80 % 81 % 0 % 1013,6 hPa 0,0 l/m 0,0 km/h (0 Bft) NO 45 0 min 11,6 C 15,9 C 0,0 km/h (0 Bft)
04.09.2016 01:55 15,1 C 23,3 C 16,2 C 16,0 C 16,0 C 0,9 C 80 % 81 % 0 % 1013,6 hPa 0,0 l/m 0,0 km/h (0 Bft) NO 45 0 min 11,7 C 16,0 C 0,0 km/h (0 Bft)
04.09.2016 02:00 15,1 C 23,3 C 16,3 C 15,9 C 15,9 C 0,8 C 80 % 81 % 0 % 1013,6 hPa 0,0 l/m 0,0 km/h (0 Bft) NO 45 0 min 11,7 C 15,9 C 0,0 km/h (0 Bft)
04.09.2016 02:05 15,1 C 23,2 C 16,2 C 15,8 C 15,8 C 0,7 C 80 % 81 % 0 % 1013,2 hPa 0,0 l/m 0,0 km/h (0 Bft) N-NO 22 0 min 11,7 C 15,8 C 0,0 km/h (0 Bft)
04.09.2016 02:12 15,1 C 23,3 C 16,0 C 15,3 C 15,3 C 0,2 C 80 % 81 % 0 % 1013,2 hPa 0,0 l/m 0,0 km/h (0 Bft) N 0 0 min 11,7 C 15,3 C 0,0 km/h (0 Bft)
04.09.2016 02:20 15,0 C 23,3 C 16,0 C 15,1 C 15,1 C 0,1 C 80 % 81 % 0 % 1013,2 hPa 0,0 l/m 0,0 km/h (0 Bft) N-NO 22 0 min 11,6 C 15,1 C 0,0 km/h (0 Bft)
04.09.2016 02:25 14,8 C 23,3 C 15,9 C 14,8 C 14,8 C 0,0 C 80 % 82 % 0 % 1012,9 hPa 0,0 l/m 0,0 km/h (0 Bft) N-NO 22 0 min 11,4 C 14,8 C 0,0 km/h (0 Bft)
04.09.2016 02:30 14,9 C 23,3 C 15,8 C 14,9 C 14,8 C 0,0 C 80 % 82 % 0 % 1012,9 hPa 0,0 l/m 0,0 km/h (0 Bft) N-NO 22 0 min 11,5 C 14,8 C 0,0 km/h (0 Bft)
04.09.2016 02:35 14,7 C 23,3 C 15,9 C 14,7 C 14,6 C 0,0 C 80 % 82 % 0 % 1012,9 hPa 0,0 l/m 0,0 km/h (0 Bft) N-NO 22 0 min 11,3 C 14,6 C 0,0 km/h (0 Bft)
04.09.2016 02:40 14,6 C 23,3 C 15,7 C 14,6 C 14,6 C 0,0 C 80 % 82 % 0 % 1012,9 hPa 0,0 l/m 0,0 km/h (0 Bft) N-NO 22 0 min 11,2 C 14,6 C 0,0 km/h (0 Bft)
04.09.2016 02:45 14,5 C 23,3 C 15,7 C 14,5 C 14,5 C 0,0 C 80 % 83 % 0 % 1013,0 hPa 0,0 l/m 0,0 km/h (0 Bft) N-NO 22 0 min 11,1 C 14,5 C 0,0 km/h (0 Bft)
04.09.2016 02:50 14,4 C 23,3 C 15,6 C 14,5 C 14,5 C 0,1 C 80 % 83 % 0 % 1013,0 hPa 0,0 l/m 0,0 km/h (0 Bft) N-NO 22 0 min 11,0 C 14,5 C 0,0 km/h (0 Bft)
04.09.2016 02:55 14,4 C 23,3 C 15,6 C 14,5 C 14,5 C 0,1 C 80 % 83 % 0 % 1013,0 hPa 0,0 l/m 0,0 km/h (0 Bft) N-NO 22 0 min 11,0 C 14,5 C 0,0 km/h (0 Bft)
04.09.2016 03:00 14,3 C 23,3 C 15,6 C 14,4 C 14,4 C 0,1 C 80 % 83 % 0 % 1013,0 hPa 0,0 l/m 0,0 km/h (0 Bft) N-NO 22 0 min 10,9 C 14,4 C 0,0 km/h (0 Bft)
04.09.2016 03:05 14,2 C 23,3 C 15,5 C 14,3 C 14,3 C 0,1 C 81 % 83 % 0 % 1012,8 hPa 0,0 l/m 0,0 km/h (0 Bft) N 360 0 min 11,0 C 14,3 C 0,0 km/h (0 Bft)
04.09.2016 03:10 14,1 C 23,3 C 15,5 C 14,4 C 14,4 C 0,3 C 81 % 83 % 0 % 1012,8 hPa 0,0 l/m 0,0 km/h (0 Bft) N 360 0 min 10,9 C 14,4 C 0,0 km/h (0 Bft)
04.09.2016 03:15 14,0 C 23,3 C 15,5 C 14,5 C 14,5 C 0,5 C 81 % 83 % 0 % 1012,8 hPa 0,0 l/m 0,0 km/h (0 Bft) S 180 0 min 10,8 C 14,5 C 0,0 km/h (0 Bft)
04.09.2016 03:20 14,0 C 23,2 C 15,5 C 14,7 C 14,7 C 0,7 C 81 % 84 % 0 % 1012,8 hPa 0,0 l/m 0,0 km/h (0 Bft) SO 135 0 min 10,8 C 14,7 C 0,0 km/h (0 Bft)
04.09.2016 03:25 14,0 C 23,2 C 15,5 C 14,8 C 14,8 C 0,8 C 82 % 84 % 0 % 1012,8 hPa 0,0 l/m 0,0 km/h (0 Bft) SO 135 0 min 11,0 C 14,8 C 0,0 km/h (0 Bft)
04.09.2016 03:30 14,1 C 23,2 C 15,5 C 15,0 C 15,0 C 0,9 C 82 % 84 % 0 % 1012,8 hPa 0,0 l/m 0,0 km/h (0 Bft) S 180 0 min 11,1 C 15,0 C 0,0 km/h (0 Bft)
04.09.2016 03:35 14,1 C 23,1 C 15,6 C 15,4 C 15,4 C 1,3 C 82 % 84 % 0 % 1012,8 hPa 0,0 l/m 0,3 km/h (0 Bft) S 180 0 min 11,1 C 15,4 C 2,4 km/h (1 Bft)
04.09.2016 03:40 14,1 C 23,0 C 15,9 C 15,9 C 15,9 C 1,8 C 82 % 84 % 0 % 1012,8 hPa 0,0 l/m 0,6 km/h (0 Bft) SW 225 0 min 11,1 C 15,9 C 2,3 km/h (1 Bft)
04.09.2016 03:45 14,3 C 23,0 C 16,3 C 16,3 C 16,3 C 2,0 C 82 % 83 % 0 % 1012,6 hPa 0,0 l/m 0,3 km/h (0 Bft) S-SW 202 0 min 11,3 C 16,3 C 0,0 km/h (0 Bft)
04.09.2016 03:50 14,4 C 23,0 C 16,4 C 16,4 C 16,4 C 2,0 C 81 % 82 % 0 % 1012,6 hPa 0,0 l/m 0,3 km/h (0 Bft) S 180 0 min 11,2 C 16,4 C 1,9 km/h (1 Bft)
04.09.2016 03:55 14,7 C 23,0 C 16,6 C 16,7 C 16,7 C 2,0 C 81 % 82 % 0 % 1012,6 hPa 0,0 l/m 0,3 km/h (0 Bft) SW 225 0 min 11,5 C 16,7 C 1,6 km/h (1 Bft)
04.09.2016 04:00 14,9 C 23,0 C 16,8 C 16,8 C 16,8 C 1,9 C 81 % 81 % 0 % 1012,6 hPa 0,0 l/m 0,5 km/h (0 Bft) S-SO 157 0 min 11,7 C 16,8 C 0,0 km/h (0 Bft)
04.09.2016 04:05 15,3 C 22,9 C 16,9 C 17,2 C 17,2 C 1,9 C 80 % 80 % 0 % 1012,0 hPa 0,0 l/m 1,3 km/h (1 Bft) S 180 0 min 11,9 C 17,2 C 3,7 km/h (1 Bft)
04.09.2016 04:12 15,9 C 22,9 C 17,2 C 17,3 C 17,3 C 1,4 C 79 % 79 % 0 % 1012,0 hPa 0,0 l/m 0,5 km/h (0 Bft) N 0 0 min 12,3 C 17,3 C 2,6 km/h (1 Bft)
04.09.2016 04:20 16,1 C 22,9 C 17,4 C 17,3 C 17,3 C 1,2 C 78 % 78 % 0 % 1012,0 hPa 0,0 l/m 0,3 km/h (0 Bft) S 180 0 min 12,3 C 17,3 C 0,0 km/h (0 Bft)
04.09.2016 04:25 16,4 C 22,9 C 17,5 C 17,4 C 17,4 C 1,0 C 77 % 78 % 0 % 1012,3 hPa 0,0 l/m 0,5 km/h (0 Bft) SO 135 0 min 12,4 C 17,4 C 1,6 km/h (1 Bft)
04.09.2016 04:30 16,7 C 22,9 C 17,5 C 17,4 C 17,4 C 0,7 C 77 % 78 % 0 % 1012,3 hPa 0,0 l/m 0,3 km/h (0 Bft) S-SO 157 0 min 12,6 C 17,4 C 1,6 km/h (1 Bft)
04.09.2016 04:35 16,9 C 22,9 C 17,7 C 17,6 C 17,6 C 0,7 C 77 % 77 % 0 % 1012,3 hPa 0,0 l/m 0,6 km/h (0 Bft) S 180 0 min 12,8 C 17,6 C 2,4 km/h (1 Bft)
04.09.2016 04:40 17,1 C 22,9 C 17,9 C 17,7 C 17,7 C 0,6 C 76 % 76 % 0 % 1012,3 hPa 0,0 l/m 0,6 km/h (0 Bft) S 180 0 min 12,8 C 17,7 C 2,4 km/h (1 Bft)
04.09.2016 04:45 17,2 C 22,9 C 18,0 C 18,0 C 18,0 C 0,8 C 76 % 76 % 0 % 1012,2 hPa 0,0 l/m 0,6 km/h (0 Bft) W-SW 247 0 min 12,9 C 18,0 C 0,0 km/h (0 Bft)
04.09.2016 04:50 17,3 C 22,9 C 17,9 C 18,0 C 18,0 C 0,7 C 75 % 76 % 0 % 1012,2 hPa 0,0 l/m 0,6 km/h (0 Bft) W 270 0 min 12,8 C 18,0 C 0,0 km/h (0 Bft)
04.09.2016 04:55 17,5 C 22,9 C 18,1 C 18,1 C 18,1 C 0,6 C 75 % 75 % 0 % 1012,2 hPa 0,0 l/m 0,2 km/h (0 Bft) SW 225 0 min 13,0 C 18,1 C 0,0 km/h (0 Bft)
04.09.2016 05:00 17,7 C 22,9 C 18,3 C 18,3 C 18,3 C 0,6 C 74 % 75 % 0 % 1012,2 hPa 0,0 l/m 0,5 km/h (0 Bft) W-SW 247 0 min 13,0 C 18,3 C 0,0 km/h (0 Bft)
04.09.2016 05:05 18,0 C 22,9 C 18,4 C 18,6 C 18,6 C 0,6 C 74 % 74 % 0 % 1012,4 hPa 0,0 l/m 1,4 km/h (1 Bft) S 180 0 min 13,3 C 18,6 C 8,7 km/h (2 Bft)
04.09.2016 05:10 18,2 C 22,9 C 18,4 C 18,8 C 18,8 C 0,6 C 73 % 74 % 0 % 1012,4 hPa 0,0 l/m 1,6 km/h (1 Bft) W-NW 292 0 min 13,3 C 18,8 C 2,9 km/h (1 Bft)
04.09.2016 05:15 18,4 C 22,9 C 18,5 C 18,9 C 18,9 C 0,5 C 73 % 74 % 0 % 1012,4 hPa 0,0 l/m 1,3 km/h (1 Bft) S-SW 202 0 min 13,5 C 18,9 C 2,7 km/h (1 Bft)
04.09.2016 05:20 18,6 C 22,9 C 18,5 C 19,0 C 19,0 C 0,4 C 72 % 74 % 0 % 1012,4 hPa 0,0 l/m 1,3 km/h (1 Bft) W 270 0 min 13,4 C 19,0 C 2,3 km/h (1 Bft)
04.09.2016 05:25 18,7 C 22,9 C 18,7 C 19,0 C 19,0 C 0,3 C 71 % 74 % 0 % 1012,3 hPa 0,0 l/m 1,6 km/h (1 Bft) S-SW 202 0 min 13,3 C 19,0 C 4,5 km/h (1 Bft)
04.09.2016 05:30 18,8 C 22,9 C 18,7 C 19,0 C 19,0 C 0,2 C 71 % 73 % 0 % 1012,3 hPa 0,0 l/m 1,6 km/h (1 Bft) SO 135 0 min 13,4 C 19,0 C 3,2 km/h (1 Bft)
04.09.2016 05:35 19,1 C 22,9 C 18,8 C 19,2 C 19,2 C 0,1 C 71 % 73 % 0 % 1012,3 hPa 0,0 l/m 1,9 km/h (1 Bft) S 180 0 min 13,7 C 19,2 C 5,6 km/h (1 Bft)
04.09.2016 05:40 19,0 C 22,9 C 18,8 C 19,2 C 19,2 C 0,2 C 70 % 73 % 0 % 1012,3 hPa 0,0 l/m 1,9 km/h (1 Bft) S-SO 157 0 min 13,4 C 19,2 C 0,0 km/h (0 Bft)
04.09.2016 05:45 19,1 C 22,9 C 18,9 C 19,2 C 19,2 C 0,1 C 70 % 72 % 0 % 1012,2 hPa 0,0 l/m 1,4 km/h (1 Bft) S-SW 202 0 min 13,5 C 19,2 C 2,6 km/h (1 Bft)
04.09.2016 05:50 19,1 C 22,9 C 18,9 C 19,2 C 19,2 C 0,1 C 70 % 72 % 0 % 1012,2 hPa 0,0 l/m 1,4 km/h (1 Bft) S 180 0 min 13,5 C 19,2 C 1,9 km/h (1 Bft)
04.09.2016 05:55 19,2 C 22,9 C 18,8 C 19,2 C 19,2 C 0,0 C 70 % 72 % 0 % 1012,2 hPa 0,0 l/m 1,8 km/h (1 Bft) W 270 0 min 13,6 C 19,2 C 2,9 km/h (1 Bft)
04.09.2016 06:00 19,2 C 22,9 C 18,8 C 19,2 C 19,2 C 0,0 C 69 % 72 % 0 % 1012,2 hPa 0,0 l/m 1,3 km/h (1 Bft) SO 135 0 min 13,4 C 19,2 C 0,0 km/h (0 Bft)
04.09.2016 06:05 19,3 C 22,9 C 18,9 C 19,3 C 19,3 C 0,0 C 69 % 72 % 0 % 1011,8 hPa 0,0 l/m 1,4 km/h (1 Bft) S 180 0 min 13,5 C 19,3 C 5,0 km/h (1 Bft)
04.09.2016 06:15 19,4 C 22,9 C 19,0 C 19,4 C 19,4 C 0,0 C 69 % 72 % 0 % 1011,8 hPa 0,0 l/m 1,4 km/h (1 Bft) N 0 0 min 13,6 C 19,4 C 0,0 km/h (0 Bft)
04.09.2016 06:20 19,5 C 22,9 C 19,1 C 19,5 C 19,5 C 0,0 C 69 % 72 % 0 % 1011,8 hPa 0,0 l/m 1,0 km/h (0 Bft) S 180 0 min 13,7 C 19,5 C 1,6 km/h (1 Bft)
04.09.2016 06:25 19,6 C 22,9 C 19,1 C 19,6 C 19,5 C 0,0 C 69 % 72 % 0 % 1012,1 hPa 0,0 l/m 1,1 km/h (1 Bft) NW 315 0 min 13,8 C 19,5 C 1,8 km/h (1 Bft)
04.09.2016 06:30 19,6 C 22,9 C 19,1 C 19,6 C 19,5 C 0,0 C 69 % 72 % 0 % 1012,1 hPa 0,0 l/m 1,3 km/h (1 Bft) S-SO 157 0 min 13,8 C 19,5 C 0,0 km/h (0 Bft)
04.09.2016 06:35 19,6 C 22,9 C 19,1 C 19,6 C 19,5 C 0,0 C 68 % 72 % 0 % 1012,1 hPa 0,0 l/m 1,1 km/h (1 Bft) S 180 0 min 13,5 C 19,5 C 4,7 km/h (1 Bft)
04.09.2016 06:40 19,6 C 22,9 C 19,2 C 19,6 C 19,5 C 0,0 C 68 % 72 % 0 % 1012,1 hPa 0,0 l/m 0,8 km/h (0 Bft) S 180 0 min 13,5 C 19,5 C 0,0 km/h (0 Bft)
04.09.2016 06:45 19,6 C 22,9 C 19,1 C 19,6 C 19,5 C 0,0 C 68 % 72 % 0 % 1012,0 hPa 0,0 l/m 1,4 km/h (1 Bft) S 180 0 min 13,5 C 19,5 C 0,0 km/h (0 Bft)
04.09.2016 06:50 19,6 C 22,9 C 19,1 C 19,6 C 19,5 C 0,0 C 68 % 72 % 0 % 1012,0 hPa 0,0 l/m 0,8 km/h (0 Bft) W-SW 247 0 min 13,5 C 19,5 C 2,1 km/h (1 Bft)
04.09.2016 06:55 19,6 C 22,9 C 19,1 C 19,5 C 19,4 C 0,0 C 68 % 72 % 0 % 1012,0 hPa 0,0 l/m 0,3 km/h (0 Bft) W 270 0 min 13,5 C 19,4 C 0,0 km/h (0 Bft)
04.09.2016 07:00 19,7 C 22,9 C 19,0 C 19,6 C 19,4 C 0,0 C 68 % 72 % 0 % 1012,0 hPa 0,0 l/m 0,3 km/h (0 Bft) W-SW 247 0 min 13,6 C 19,4 C 0,0 km/h (0 Bft)
04.09.2016 07:05 19,6 C 22,9 C 19,1 C 19,5 C 19,3 C 0,0 C 68 % 72 % 0 % 1012,1 hPa 0,0 l/m 0,3 km/h (0 Bft) W-SW 247 0 min 13,5 C 19,3 C 0,0 km/h (0 Bft)
04.09.2016 07:10 19,6 C 22,9 C 19,0 C 19,5 C 19,4 C 0,0 C 69 % 72 % 0 % 1012,1 hPa 0,0 l/m 0,5 km/h (0 Bft) W 270 0 min 13,8 C 19,4 C 2,7 km/h (1 Bft)
04.09.2016 07:15 19,6 C 22,9 C 19,1 C 19,5 C 19,4 C 0,0 C 69 % 72 % 0 % 1012,1 hPa 0,0 l/m 0,8 km/h (0 Bft) NW 315 0 min 13,8 C 19,4 C 0,0 km/h (0 Bft)
04.09.2016 07:20 19,6 C 22,9 C 19,2 C 19,6 C 19,6 C 0,0 C 69 % 72 % 0 % 1012,1 hPa 0,0 l/m 1,1 km/h (1 Bft) SW 225 0 min 13,8 C 19,6 C 2,1 km/h (1 Bft)
04.09.2016 07:25 19,9 C 22,9 C 19,2 C 19,8 C 19,7 C 0,0 C 68 % 72 % 0 % 1012,0 hPa 0,0 l/m 1,1 km/h (1 Bft) SW 225 0 min 13,8 C 19,7 C 3,9 km/h (1 Bft)
04.09.2016 07:30 19,9 C 22,9 C 19,2 C 19,8 C 19,7 C 0,0 C 68 % 72 % 0 % 1012,0 hPa 0,0 l/m 1,0 km/h (0 Bft) SO 135 0 min 13,8 C 19,7 C 0,0 km/h (0 Bft)
04.09.2016 07:35 19,9 C 22,9 C 19,3 C 19,8 C 19,7 C 0,0 C 68 % 72 % 0 % 1012,0 hPa 0,0 l/m 0,8 km/h (0 Bft) SW 225 0 min 13,8 C 19,7 C 2,7 km/h (1 Bft)
04.09.2016 07:40 19,9 C 22,9 C 19,2 C 19,8 C 19,7 C 0,0 C 68 % 72 % 0 % 1012,0 hPa 0,0 l/m 0,8 km/h (0 Bft) SW 225 0 min 13,8 C 19,7 C 3,2 km/h (1 Bft)
04.09.2016 07:45 19,9 C 22,9 C 19,3 C 19,8 C 19,7 C 0,0 C 68 % 72 % 0 % 1012,0 hPa 0,0 l/m 0,8 km/h (0 Bft) W-SW 247 0 min 13,8 C 19,7 C 0,0 km/h (0 Bft)
04.09.2016 07:50 19,9 C 22,9 C 19,2 C 19,8 C 19,7 C 0,0 C 68 % 72 % 0 % 1012,0 hPa 0,0 l/m 0,5 km/h (0 Bft) SO 135 0 min 13,8 C 19,7 C 0,0 km/h (0 Bft)
04.09.2016 07:55 19,8 C 22,9 C 19,2 C 19,8 C 19,7 C 0,0 C 69 % 72 % 0 % 1012,0 hPa 0,0 l/m 0,0 km/h (0 Bft) S-SO 157 0 min 13,9 C 19,7 C 0,0 km/h (0 Bft)
04.09.2016 08:00 19,8 C 22,9 C 19,2 C 20,0 C 20,0 C 0,2 C 69 % 72 % 5 % 1012,0 hPa 0,0 l/m 0,3 km/h (0 Bft) NW 315 0 min 13,9 C 20,0 C 0,0 km/h (0 Bft)
04.09.2016 08:05 19,9 C 22,9 C 19,3 C 20,2 C 20,2 C 0,3 C 69 % 73 % 8 % 1012,1 hPa 0,0 l/m 0,3 km/h (0 Bft) S-SO 157 0 min 14,0 C 20,2 C 1,8 km/h (1 Bft)
04.09.2016 08:12 20,1 C 22,9 C 19,3 C 21,5 C 21,5 C 1,4 C 69 % 73 % 37 % 1012,1 hPa 0,0 l/m 0,6 km/h (0 Bft) N 0 0 min 14,2 C 21,5 C 0,0 km/h (0 Bft)
04.09.2016 08:20 20,3 C 22,9 C 19,3 C 23,8 C 23,8 C 3,5 C 69 % 73 % 92 % 1012,1 hPa 0,0 l/m 0,5 km/h (0 Bft) O 90 8 min 14,4 C 23,8 C 2,3 km/h (1 Bft)
04.09.2016 08:25 20,7 C 22,9 C 19,4 C 25,4 C 25,4 C 4,7 C 68 % 72 % 100 % 1012,1 hPa 0,0 l/m 0,6 km/h (0 Bft) O-SO 112 5 min 14,6 C 25,4 C 2,4 km/h (1 Bft)
04.09.2016 08:30 20,9 C 22,9 C 19,5 C 25,1 C 25,1 C 4,2 C 67 % 73 % 100 % 1012,1 hPa 0,0 l/m 1,1 km/h (1 Bft) SW 225 5 min 14,5 C 25,1 C 4,2 km/h (1 Bft)
04.09.2016 08:35 21,3 C 22,9 C 19,6 C 26,3 C 26,3 C 5,0 C 67 % 72 % 100 % 1012,1 hPa 0,0 l/m 1,1 km/h (1 Bft) S-SO 157 5 min 14,9 C 26,3 C 4,2 km/h (1 Bft)
04.09.2016 08:40 21,7 C 22,9 C 19,7 C 27,4 C 27,4 C 5,7 C 66 % 72 % 100 % 1012,1 hPa 0,0 l/m 1,1 km/h (1 Bft) S 180 5 min 15,1 C 27,4 C 2,9 km/h (1 Bft)
04.09.2016 08:45 22,1 C 22,9 C 19,8 C 28,1 C 28,1 C 6,0 C 65 % 72 % 100 % 1012,2 hPa 0,0 l/m 1,1 km/h (1 Bft) SW 225 5 min 15,2 C 28,1 C 3,5 km/h (1 Bft)
04.09.2016 08:50 22,5 C 22,8 C 20,0 C 28,2 C 28,2 C 5,7 C 64 % 72 % 100 % 1012,2 hPa 0,0 l/m 1,1 km/h (1 Bft) NO 45 5 min 15,3 C 28,2 C 2,1 km/h (1 Bft)
04.09.2016 08:55 22,9 C 22,8 C 20,1 C 27,2 C 27,2 C 4,3 C 64 % 71 % 100 % 1012,2 hPa 0,0 l/m 0,8 km/h (0 Bft) S 180 5 min 15,7 C 27,2 C 0,0 km/h (0 Bft)
04.09.2016 09:00 23,1 C 22,8 C 20,3 C 26,2 C 26,2 C 3,1 C 62 % 71 % 82 % 1012,2 hPa 0,0 l/m 1,3 km/h (1 Bft) NO 45 0 min 15,4 C 26,2 C 6,8 km/h (2 Bft)
04.09.2016 09:05 23,2 C 22,8 C 20,5 C 25,0 C 25,0 C 1,8 C 60 % 70 % 47 % 1012,4 hPa 0,0 l/m 2,4 km/h (1 Bft) O-NO 67 0 min 15,0 C 25,0 C 5,6 km/h (1 Bft)
04.09.2016 09:10 22,9 C 22,8 C 20,7 C 24,3 C 24,3 C 1,4 C 60 % 70 % 37 % 1012,4 hPa 0,0 l/m 3,2 km/h (1 Bft) SO 135 0 min 14,7 C 24,3 C 3,2 km/h (1 Bft)
04.09.2016 09:15 22,7 C 22,8 C 20,7 C 23,5 C 23,5 C 0,8 C 60 % 69 % 21 % 1012,4 hPa 0,0 l/m 3,2 km/h (1 Bft) W-SW 247 0 min 14,5 C 23,5 C 9,3 km/h (2 Bft)
04.09.2016 09:20 22,5 C 22,8 C 20,9 C 23,4 C 23,4 C 0,9 C 61 % 69 % 24 % 1012,4 hPa 0,0 l/m 2,3 km/h (1 Bft) S-SW 202 0 min 14,6 C 23,4 C 2,1 km/h (1 Bft)
04.09.2016 09:25 22,4 C 22,8 C 20,9 C 23,3 C 23,3 C 0,9 C 61 % 69 % 24 % 1012,2 hPa 0,0 l/m 1,9 km/h (1 Bft) NO 45 0 min 14,5 C 23,3 C 0,0 km/h (0 Bft)
04.09.2016 09:30 22,4 C 22,8 C 21,0 C 23,3 C 23,3 C 0,9 C 61 % 68 % 24 % 1012,2 hPa 0,0 l/m 2,3 km/h (1 Bft) S 180 0 min 14,5 C 23,3 C 3,9 km/h (1 Bft)
04.09.2016 09:35 22,5 C 22,8 C 21,2 C 23,6 C 23,6 C 1,1 C 62 % 68 % 29 % 1012,2 hPa 0,0 l/m 1,6 km/h (1 Bft) NW 315 0 min 14,8 C 23,6 C 0,0 km/h (0 Bft)
04.09.2016 09:40 22,6 C 22,8 C 21,2 C 23,8 C 23,8 C 1,2 C 62 % 68 % 32 % 1012,2 hPa 0,0 l/m 1,1 km/h (1 Bft) W-NW 292 0 min 14,9 C 23,8 C 2,6 km/h (1 Bft)
04.09.2016 09:45 22,7 C 22,8 C 21,5 C 23,9 C 23,9 C 1,2 C 61 % 68 % 32 % 1012,1 hPa 0,0 l/m 1,6 km/h (1 Bft) W 270 0 min 14,8 C 23,9 C 2,4 km/h (1 Bft)
04.09.2016 09:50 22,7 C 22,8 C 21,5 C 24,0 C 24,0 C 1,3 C 61 % 67 % 34 % 1012,1 hPa 0,0 l/m 2,1 km/h (1 Bft) W-SW 247 0 min 14,8 C 24,0 C 3,9 km/h (1 Bft)
04.09.2016 09:55 22,7 C 22,8 C 21,7 C 24,2 C 24,2 C 1,5 C 60 % 67 % 39 % 1012,1 hPa 0,0 l/m 2,4 km/h (1 Bft) W-SW 247 0 min 14,5 C 24,2 C 5,5 km/h (1 Bft)
04.09.2016 10:00 22,8 C 22,9 C 21,9 C 24,5 C 24,5 C 1,7 C 60 % 66 % 45 % 1012,1 hPa 0,0 l/m 2,1 km/h (1 Bft) O-SO 112 0 min 14,6 C 24,5 C 4,3 km/h (1 Bft)
04.09.2016 10:05 23,0 C 22,9 C 22,0 C 24,9 C 24,9 C 1,9 C 60 % 66 % 50 % 1011,9 hPa 0,0 l/m 1,4 km/h (1 Bft) SW 225 0 min 14,8 C 24,9 C 3,5 km/h (1 Bft)
04.09.2016 10:12 23,1 C 22,9 C 22,2 C 25,0 C 25,0 C 1,9 C 59 % 64 % 50 % 1011,9 hPa 0,0 l/m 2,3 km/h (1 Bft) N 0 0 min 14,6 C 25,0 C 1,8 km/h (1 Bft)
04.09.2016 10:20 23,3 C 22,9 C 22,2 C 25,3 C 25,3 C 2,0 C 59 % 64 % 53 % 1011,9 hPa 0,0 l/m 1,9 km/h (1 Bft) S-SW 202 0 min 14,8 C 25,3 C 4,5 km/h (1 Bft)
04.09.2016 10:25 23,3 C 22,9 C 22,4 C 25,4 C 25,4 C 2,1 C 58 % 63 % 55 % 1011,9 hPa 0,0 l/m 2,4 km/h (1 Bft) O-SO 112 0 min 14,6 C 25,4 C 12,1 km/h (2 Bft)
04.09.2016 10:30 23,4 C 22,9 C 22,5 C 25,6 C 25,6 C 2,2 C 57 % 63 % 58 % 1011,9 hPa 0,0 l/m 2,9 km/h (1 Bft) S 180 0 min 14,4 C 25,6 C 4,7 km/h (1 Bft)
04.09.2016 10:35 23,5 C 22,9 C 22,7 C 26,0 C 26,0 C 2,5 C 56 % 62 % 66 % 1011,9 hPa 0,0 l/m 3,2 km/h (1 Bft) W-SW 247 0 min 14,2 C 26,0 C 4,7 km/h (1 Bft)
04.09.2016 10:40 23,6 C 22,9 C 22,8 C 26,0 C 26,0 C 2,4 C 56 % 61 % 63 % 1011,9 hPa 0,0 l/m 3,4 km/h (1 Bft) W 270 0 min 14,3 C 26,0 C 4,0 km/h (1 Bft)
04.09.2016 10:45 23,6 C 22,9 C 22,8 C 25,7 C 25,7 C 2,1 C 55 % 61 % 55 % 1011,8 hPa 0,0 l/m 3,5 km/h (1 Bft) W-SW 247 0 min 14,0 C 25,7 C 6,3 km/h (2 Bft)
04.09.2016 10:50 23,6 C 22,9 C 22,8 C 25,4 C 25,4 C 1,8 C 55 % 60 % 47 % 1011,8 hPa 0,0 l/m 3,7 km/h (1 Bft) S-SW 202 0 min 14,0 C 25,4 C 6,6 km/h (2 Bft)
04.09.2016 10:55 23,6 C 22,9 C 22,7 C 25,2 C 25,2 C 1,6 C 55 % 60 % 42 % 1011,8 hPa 0,0 l/m 3,5 km/h (1 Bft) W-NW 292 0 min 14,0 C 25,2 C 2,9 km/h (1 Bft)
04.09.2016 11:00 23,6 C 22,9 C 22,7 C 25,1 C 25,1 C 1,5 C 55 % 60 % 39 % 1011,8 hPa 0,0 l/m 3,5 km/h (1 Bft) S-SW 202 0 min 14,0 C 25,1 C 11,1 km/h (2 Bft)
04.09.2016 11:05 23,6 C 22,9 C 22,8 C 25,1 C 25,1 C 1,5 C 55 % 60 % 39 % 1011,9 hPa 0,0 l/m 3,7 km/h (1 Bft) W 270 0 min 14,0 C 25,1 C 5,6 km/h (1 Bft)
04.09.2016 11:10 23,6 C 22,9 C 22,8 C 25,1 C 25,1 C 1,5 C 55 % 60 % 39 % 1011,9 hPa 0,0 l/m 4,0 km/h (1 Bft) S 180 0 min 14,0 C 25,1 C 6,8 km/h (2 Bft)
04.09.2016 11:15 23,4 C 22,9 C 22,7 C 24,9 C 24,9 C 1,5 C 55 % 60 % 39 % 1011,9 hPa 0,0 l/m 4,3 km/h (1 Bft) W-SW 247 0 min 13,8 C 24,9 C 13,0 km/h (3 Bft)
04.09.2016 11:20 23,5 C 22,9 C 22,7 C 24,8 C 24,8 C 1,3 C 55 % 60 % 34 % 1011,9 hPa 0,0 l/m 4,0 km/h (1 Bft) S-SO 157 0 min 13,9 C 24,8 C 2,7 km/h (1 Bft)
04.09.2016 11:25 23,5 C 22,9 C 22,7 C 24,8 C 24,8 C 1,3 C 56 % 60 % 34 % 1011,9 hPa 0,0 l/m 3,7 km/h (1 Bft) N-NO 22 0 min 14,2 C 24,8 C 4,2 km/h (1 Bft)
04.09.2016 11:30 23,5 C 22,9 C 22,8 C 24,8 C 24,8 C 1,3 C 56 % 60 % 34 % 1011,9 hPa 0,0 l/m 3,9 km/h (1 Bft) W-SW 247 0 min 14,2 C 24,8 C 3,2 km/h (1 Bft)
04.09.2016 11:35 23,6 C 22,9 C 22,9 C 25,2 C 25,2 C 1,6 C 56 % 61 % 42 % 1011,9 hPa 0,0 l/m 3,1 km/h (1 Bft) W-SW 247 0 min 14,3 C 25,2 C 2,7 km/h (1 Bft)
04.09.2016 11:40 23,7 C 22,9 C 23,1 C 25,6 C 25,6 C 1,9 C 56 % 60 % 50 % 1011,9 hPa 0,0 l/m 2,4 km/h (1 Bft) W-NW 292 0 min 14,4 C 25,6 C 4,8 km/h (1 Bft)
04.09.2016 11:45 24,0 C 22,9 C 23,3 C 26,2 C 26,2 C 2,2 C 56 % 60 % 58 % 1011,9 hPa 0,0 l/m 3,1 km/h (1 Bft) W-SW 247 0 min 14,7 C 26,2 C 4,5 km/h (1 Bft)
04.09.2016 11:50 24,0 C 22,9 C 23,3 C 26,2 C 26,2 C 2,2 C 56 % 60 % 58 % 1011,9 hPa 0,0 l/m 3,7 km/h (1 Bft) S-SO 157 0 min 14,7 C 26,2 C 7,6 km/h (2 Bft)
04.09.2016 11:55 24,1 C 22,9 C 23,3 C 26,0 C 26,0 C 1,9 C 56 % 59 % 50 % 1011,9 hPa 0,0 l/m 4,8 km/h (1 Bft) W-SW 247 0 min 14,8 C 26,0 C 15,0 km/h (3 Bft)
04.09.2016 12:00 24,0 C 22,9 C 23,2 C 25,8 C 25,8 C 1,8 C 56 % 59 % 47 % 1011,9 hPa 0,0 l/m 4,0 km/h (1 Bft) SO 135 0 min 14,7 C 25,8 C 5,6 km/h (1 Bft)
04.09.2016 12:05 23,9 C 22,9 C 23,3 C 25,5 C 25,5 C 1,6 C 55 % 59 % 42 % 1011,8 hPa 0,0 l/m 4,3 km/h (1 Bft) O 90 0 min 14,3 C 25,5 C 4,7 km/h (1 Bft)
04.09.2016 12:13 24,0 C 22,9 C 23,3 C 25,7 C 25,7 C 1,7 C 56 % 60 % 45 % 1011,8 hPa 0,0 l/m 2,7 km/h (1 Bft) N 0 0 min 14,7 C 25,7 C 5,0 km/h (1 Bft)
04.09.2016 12:20 24,1 C 22,9 C 23,5 C 26,0 C 26,0 C 1,9 C 56 % 60 % 50 % 1011,8 hPa 0,0 l/m 2,7 km/h (1 Bft) W 270 0 min 14,8 C 26,0 C 3,4 km/h (1 Bft)
04.09.2016 12:25 24,4 C 22,9 C 23,6 C 26,6 C 26,6 C 2,2 C 55 % 59 % 58 % 1011,5 hPa 0,0 l/m 3,2 km/h (1 Bft) S 180 0 min 14,8 C 26,6 C 7,2 km/h (2 Bft)
04.09.2016 12:30 24,3 C 22,9 C 23,3 C 25,8 C 25,8 C 1,5 C 55 % 58 % 39 % 1011,5 hPa 0,0 l/m 3,9 km/h (1 Bft) W-SW 247 0 min 14,7 C 25,8 C 4,0 km/h (1 Bft)
04.09.2016 12:35 24,0 C 22,9 C 23,1 C 25,1 C 25,1 C 1,1 C 55 % 59 % 29 % 1011,5 hPa 0,0 l/m 3,9 km/h (1 Bft) S 180 0 min 14,4 C 25,1 C 2,4 km/h (1 Bft)
04.09.2016 12:47 23,6 C 22,9 C 22,7 C 23,8 C 23,8 C 0,2 C 55 % 60 % 5 % 1011,7 hPa 0,0 l/m 3,5 km/h (1 Bft) W 270 0 min 14,0 C 23,8 C 2,7 km/h (1 Bft)
04.09.2016 12:50 23,6 C 22,9 C 22,7 C 23,8 C 23,8 C 0,2 C 55 % 60 % 5 % 1011,7 hPa 0,0 l/m 3,5 km/h (1 Bft) W 270 0 min 14,0 C 23,8 C 2,7 km/h (1 Bft)
04.09.2016 12:55 23,3 C 22,9 C 22,5 C 23,2 C 22,9 C 0,0 C 58 % 61 % 0 % 1011,7 hPa 0,0 l/m 3,9 km/h (1 Bft) S-SW 202 0 min 14,6 C 22,9 C 5,0 km/h (1 Bft)
04.09.2016 13:00 22,9 C 23,0 C 22,1 C 22,4 C 21,3 C 0,0 C 63 % 64 % 0 % 1011,7 hPa 0,0 l/m 4,5 km/h (1 Bft) SW 225 0 min 15,5 C 21,3 C 9,3 km/h (2 Bft)
04.09.2016 13:05 21,5 C 23,3 C 19,9 C 20,6 C 18,9 C 0,0 C 68 % 74 % 0 % 1012,7 hPa 0,7 l/m 5,6 km/h (1 Bft) W-SW 247 0 min 15,3 C 18,9 C 7,2 km/h (2 Bft)
04.09.2016 13:10 20,5 C 23,4 C 19,2 C 19,7 C 18,1 C 0,0 C 71 % 80 % 0 % 1012,7 hPa 0,7 l/m 5,5 km/h (1 Bft) S 180 0 min 15,1 C 18,1 C 5,8 km/h (2 Bft)
04.09.2016 13:15 19,7 C 23,5 C 18,7 C 18,9 C 17,4 C 0,0 C 73 % 85 % 0 % 1012,7 hPa 0,7 l/m 3,9 km/h (1 Bft) W-SW 247 0 min 14,7 C 17,4 C 0,0 km/h (0 Bft)
04.09.2016 13:20 19,3 C 23,5 C 18,5 C 18,7 C 17,4 C 0,0 C 75 % 87 % 0 % 1012,7 hPa 0,0 l/m 2,7 km/h (1 Bft) W 270 0 min 14,8 C 17,4 C 0,0 km/h (0 Bft)
04.09.2016 13:25 18,8 C 23,5 C 18,4 C 18,3 C 17,4 C 0,0 C 77 % 88 % 0 % 1012,6 hPa 0,0 l/m 1,4 km/h (1 Bft) S-SW 202 0 min 14,7 C 17,4 C 3,7 km/h (1 Bft)
04.09.2016 13:30 18,7 C 23,5 C 18,3 C 18,3 C 17,4 C 0,0 C 77 % 88 % 0 % 1012,6 hPa 0,0 l/m 1,9 km/h (1 Bft) SW 225 0 min 14,6 C 17,4 C 5,1 km/h (1 Bft)
04.09.2016 13:35 18,1 C 23,6 C 18,3 C 17,9 C 17,4 C 0,0 C 79 % 89 % 0 % 1012,6 hPa 0,0 l/m 1,8 km/h (1 Bft) W-NW 292 0 min 14,4 C 17,4 C 2,6 km/h (1 Bft)
04.09.2016 13:40 17,9 C 23,6 C 18,1 C 17,8 C 17,5 C 0,0 C 79 % 89 % 0 % 1012,6 hPa 0,0 l/m 1,3 km/h (1 Bft) SO 135 0 min 14,2 C 17,5 C 2,6 km/h (1 Bft)
04.09.2016 13:45 17,6 C 23,6 C 18,1 C 17,6 C 17,5 C 0,0 C 80 % 89 % 0 % 1012,3 hPa 0,0 l/m 0,8 km/h (0 Bft) W-SW 247 0 min 14,1 C 17,5 C 1,8 km/h (1 Bft)
04.09.2016 13:50 17,5 C 23,6 C 18,0 C 17,6 C 17,6 C 0,1 C 81 % 88 % 3 % 1012,3 hPa 0,0 l/m 0,5 km/h (0 Bft) S 180 0 min 14,2 C 17,6 C 2,1 km/h (1 Bft)
04.09.2016 13:55 17,3 C 23,6 C 18,1 C 17,6 C 17,6 C 0,3 C 81 % 88 % 8 % 1012,3 hPa 0,0 l/m 0,5 km/h (0 Bft) SW 225 0 min 14,0 C 17,6 C 2,4 km/h (1 Bft)
04.09.2016 14:00 17,3 C 23,6 C 18,1 C 17,6 C 17,6 C 0,3 C 82 % 87 % 8 % 1012,3 hPa 0,7 l/m 0,5 km/h (0 Bft) S 180 0 min 14,2 C 17,6 C 2,1 km/h (1 Bft)
04.09.2016 14:05 17,3 C 23,6 C 18,1 C 17,9 C 17,9 C 0,6 C 82 % 87 % 16 % 1011,5 hPa 0,0 l/m 0,3 km/h (0 Bft) SO 135 0 min 14,2 C 17,9 C 0,0 km/h (0 Bft)
04.09.2016 14:12 17,5 C 23,6 C 18,4 C 19,1 C 19,1 C 1,6 C 84 % 84 % 42 % 1011,5 hPa 0,0 l/m 0,0 km/h (0 Bft) N 0 0 min 14,8 C 19,1 C 0,0 km/h (0 Bft)
04.09.2016 14:20 17,6 C 23,6 C 18,5 C 19,0 C 19,0 C 1,4 C 84 % 84 % 37 % 1011,5 hPa 0,0 l/m 1,0 km/h (0 Bft) W-SW 247 0 min 14,9 C 19,0 C 2,6 km/h (1 Bft)
04.09.2016 14:25 17,7 C 23,6 C 18,7 C 19,2 C 19,2 C 1,5 C 85 % 83 % 39 % 1011,6 hPa 0,0 l/m 1,1 km/h (1 Bft) W-SW 247 0 min 15,1 C 19,2 C 0,0 km/h (0 Bft)
04.09.2016 14:30 17,8 C 23,6 C 18,6 C 19,4 C 19,4 C 1,6 C 85 % 83 % 42 % 1011,6 hPa 0,0 l/m 0,5 km/h (0 Bft) S 180 0 min 15,2 C 19,4 C 2,4 km/h (1 Bft)
04.09.2016 14:35 17,9 C 23,6 C 18,7 C 19,7 C 19,7 C 1,8 C 85 % 82 % 47 % 1011,6 hPa 0,0 l/m 0,5 km/h (0 Bft) S 180 0 min 15,3 C 19,7 C 0,0 km/h (0 Bft)
04.09.2016 14:40 17,9 C 23,6 C 18,7 C 19,7 C 19,7 C 1,8 C 85 % 82 % 47 % 1011,6 hPa 0,0 l/m 0,8 km/h (0 Bft) NW 315 0 min 15,3 C 19,7 C 1,8 km/h (1 Bft)
04.09.2016 14:45 17,6 C 23,6 C 18,4 C 19,4 C 19,4 C 1,8 C 84 % 84 % 47 % 1011,0 hPa 0,0 l/m 2,1 km/h (1 Bft) S-SO 157 0 min 14,9 C 19,4 C 6,8 km/h (2 Bft)
04.09.2016 14:50 17,6 C 23,6 C 18,4 C 19,2 C 19,2 C 1,6 C 84 % 84 % 42 % 1011,0 hPa 0,0 l/m 2,1 km/h (1 Bft) S-SW 202 0 min 14,9 C 19,2 C 0,0 km/h (0 Bft)
04.09.2016 14:55 17,6 C 23,6 C 18,7 C 19,2 C 19,2 C 1,6 C 84 % 83 % 42 % 1011,0 hPa 0,0 l/m 1,0 km/h (0 Bft) SO 135 0 min 14,9 C 19,2 C 2,4 km/h (1 Bft)
04.09.2016 15:00 17,7 C 23,5 C 18,7 C 19,4 C 19,4 C 1,7 C 85 % 83 % 45 % 1011,0 hPa 0,0 l/m 1,1 km/h (1 Bft) S 180 0 min 15,1 C 19,4 C 2,1 km/h (1 Bft)
04.09.2016 15:05 17,7 C 23,5 C 18,9 C 20,1 C 20,1 C 2,4 C 84 % 83 % 63 % 1010,8 hPa 0,0 l/m 1,8 km/h (1 Bft) S 180 0 min 15,0 C 20,1 C 1,9 km/h (1 Bft)
04.09.2016 15:10 17,7 C 23,5 C 18,9 C 20,6 C 20,6 C 2,9 C 85 % 83 % 76 % 1010,8 hPa 0,0 l/m 1,8 km/h (1 Bft) S-SO 157 0 min 15,1 C 20,6 C 2,7 km/h (1 Bft)
04.09.2016 15:15 18,1 C 23,6 C 19,1 C 21,4 C 21,4 C 3,3 C 85 % 83 % 87 % 1010,8 hPa 0,0 l/m 1,3 km/h (1 Bft) W 270 5 min 15,5 C 21,4 C 1,9 km/h (1 Bft)
04.09.2016 15:20 18,1 C 23,5 C 19,2 C 21,7 C 21,7 C 3,6 C 84 % 83 % 95 % 1010,8 hPa 0,0 l/m 1,9 km/h (1 Bft) S-SO 157 5 min 15,4 C 21,7 C 6,4 km/h (2 Bft)
04.09.2016 15:25 18,0 C 23,3 C 19,3 C 21,8 C 21,8 C 3,8 C 84 % 84 % 100 % 1010,5 hPa 0,0 l/m 2,9 km/h (1 Bft) SW 225 5 min 15,3 C 21,8 C 2,6 km/h (1 Bft)
04.09.2016 15:30 18,1 C 23,4 C 19,3 C 22,4 C 22,4 C 4,3 C 84 % 84 % 100 % 1010,5 hPa 0,0 l/m 2,6 km/h (1 Bft) O-SO 112 5 min 15,4 C 22,4 C 3,2 km/h (1 Bft)
04.09.2016 15:35 18,5 C 23,3 C 19,6 C 23,7 C 23,7 C 5,2 C 84 % 83 % 100 % 1010,5 hPa 0,0 l/m 1,9 km/h (1 Bft) W 270 5 min 15,7 C 23,7 C 2,6 km/h (1 Bft)
04.09.2016 15:40 18,8 C 23,3 C 20,0 C 25,0 C 25,0 C 6,2 C 84 % 83 % 100 % 1010,5 hPa 0,0 l/m 2,3 km/h (1 Bft) W-NW 292 5 min 16,0 C 25,0 C 5,6 km/h (1 Bft)
04.09.2016 15:45 19,3 C 23,3 C 20,0 C 25,2 C 25,2 C 5,9 C 81 % 85 % 100 % 1009,9 hPa 0,0 l/m 2,9 km/h (1 Bft) W 270 5 min 16,0 C 25,2 C 4,2 km/h (1 Bft)
04.09.2016 15:50 19,5 C 23,3 C 20,0 C 24,6 C 24,6 C 5,1 C 81 % 86 % 100 % 1009,9 hPa 0,7 l/m 2,6 km/h (1 Bft) SW 225 5 min 16,1 C 24,6 C 1,9 km/h (1 Bft)
04.09.2016 15:55 19,6 C 23,3 C 20,1 C 23,9 C 23,9 C 4,3 C 79 % 86 % 100 % 1009,9 hPa 0,0 l/m 2,6 km/h (1 Bft) S 180 5 min 15,9 C 23,9 C 4,3 km/h (1 Bft)
04.09.2016 16:00 19,8 C 23,3 C 20,3 C 24,1 C 24,1 C 4,3 C 79 % 86 % 100 % 1009,9 hPa 0,0 l/m 2,9 km/h (1 Bft) S 180 5 min 16,0 C 24,1 C 4,5 km/h (1 Bft)
04.09.2016 16:05 20,0 C 23,2 C 20,5 C 25,0 C 25,0 C 5,0 C 79 % 86 % 100 % 1010,2 hPa 0,0 l/m 2,3 km/h (1 Bft) O-NO 67 5 min 16,2 C 25,0 C 2,3 km/h (1 Bft)
04.09.2016 16:12 20,6 C 23,1 C 20,8 C 26,5 C 26,5 C 5,9 C 77 % 87 % 100 % 1010,2 hPa 0,0 l/m 3,1 km/h (1 Bft) N 0 7 min 16,4 C 26,5 C 7,2 km/h (2 Bft)
04.09.2016 16:20 20,7 C 23,1 C 20,4 C 24,9 C 24,9 C 4,2 C 75 % 88 % 100 % 1010,2 hPa 0,0 l/m 3,2 km/h (1 Bft) S 180 8 min 16,1 C 24,9 C 2,7 km/h (1 Bft)
04.09.2016 16:25 20,7 C 23,1 C 20,3 C 23,7 C 23,7 C 3,0 C 74 % 89 % 79 % 1009,6 hPa 0,0 l/m 3,5 km/h (1 Bft) NW 315 0 min 15,9 C 23,7 C 0,0 km/h (0 Bft)
04.09.2016 16:30 20,7 C 23,1 C 20,4 C 23,5 C 23,5 C 2,8 C 74 % 89 % 74 % 1009,6 hPa 0,0 l/m 3,4 km/h (1 Bft) SW 225 0 min 15,9 C 23,5 C 3,7 km/h (1 Bft)
04.09.2016 16:35 20,9 C 23,2 C 20,5 C 23,3 C 23,3 C 2,4 C 74 % 89 % 63 % 1009,6 hPa 0,0 l/m 3,4 km/h (1 Bft) S-SO 157 0 min 16,1 C 23,3 C 10,5 km/h (2 Bft)
04.09.2016 16:40 20,9 C 23,2 C 20,7 C 23,4 C 23,4 C 2,5 C 74 % 89 % 66 % 1009,6 hPa 0,0 l/m 3,5 km/h (1 Bft) N 360 0 min 16,1 C 23,4 C 5,8 km/h (2 Bft)
04.09.2016 16:45 21,3 C 23,2 C 21,3 C 25,4 C 25,4 C 4,1 C 74 % 88 % 100 % 1009,4 hPa 0,0 l/m 3,4 km/h (1 Bft) W-SW 247 5 min 16,5 C 25,4 C 5,1 km/h (1 Bft)
04.09.2016 16:50 21,5 C 23,2 C 21,3 C 26,4 C 26,4 C 4,9 C 73 % 89 % 100 % 1009,4 hPa 0,0 l/m 3,2 km/h (1 Bft) SW 225 5 min 16,4 C 26,4 C 3,5 km/h (1 Bft)
04.09.2016 16:55 21,5 C 23,2 C 21,0 C 25,4 C 25,4 C 3,9 C 73 % 89 % 100 % 1009,4 hPa 0,0 l/m 2,6 km/h (1 Bft) O 90 5 min 16,4 C 25,4 C 1,9 km/h (1 Bft)
04.09.2016 17:00 21,6 C 23,2 C 21,1 C 24,8 C 24,8 C 3,2 C 73 % 89 % 84 % 1009,4 hPa 0,0 l/m 1,9 km/h (1 Bft) S 180 0 min 16,5 C 24,8 C 2,6 km/h (1 Bft)
04.09.2016 17:05 21,5 C 23,2 C 20,9 C 23,8 C 23,8 C 2,3 C 72 % 89 % 61 % 1009,6 hPa 0,0 l/m 1,6 km/h (1 Bft) SO 135 0 min 16,2 C 23,8 C 3,1 km/h (1 Bft)
04.09.2016 17:15 21,5 C 23,2 C 20,7 C 22,5 C 22,5 C 1,0 C 72 % 89 % 26 % 1009,6 hPa 0,0 l/m 2,6 km/h (1 Bft) S 180 0 min 16,2 C 22,5 C 2,4 km/h (1 Bft)
04.09.2016 17:20 21,3 C 23,2 C 20,6 C 22,4 C 22,4 C 1,1 C 72 % 89 % 29 % 1009,6 hPa 0,0 l/m 2,7 km/h (1 Bft) SW 225 0 min 16,0 C 22,4 C 6,4 km/h (2 Bft)
04.09.2016 17:25 21,3 C 23,2 C 20,7 C 22,2 C 22,2 C 0,9 C 72 % 89 % 24 % 1009,4 hPa 0,0 l/m 2,4 km/h (1 Bft) W 270 0 min 16,0 C 22,2 C 5,6 km/h (1 Bft)
04.09.2016 17:30 21,3 C 23,2 C 20,6 C 22,0 C 22,0 C 0,7 C 72 % 89 % 18 % 1009,4 hPa 0,0 l/m 2,7 km/h (1 Bft) SW 225 0 min 16,0 C 22,0 C 4,8 km/h (1 Bft)
04.09.2016 17:35 21,3 C 23,2 C 20,7 C 21,9 C 21,9 C 0,6 C 72 % 89 % 16 % 1009,4 hPa 0,0 l/m 3,1 km/h (1 Bft) S 180 0 min 16,0 C 21,9 C 4,3 km/h (1 Bft)
04.09.2016 17:40 21,3 C 23,2 C 20,6 C 21,8 C 21,8 C 0,5 C 72 % 89 % 13 % 1009,4 hPa 0,0 l/m 2,7 km/h (1 Bft) W-SW 247 0 min 16,0 C 21,8 C 2,9 km/h (1 Bft)
04.09.2016 17:45 21,2 C 23,2 C 20,5 C 21,7 C 21,7 C 0,5 C 72 % 89 % 13 % 1009,2 hPa 0,0 l/m 2,6 km/h (1 Bft) S 180 0 min 15,9 C 21,7 C 5,1 km/h (1 Bft)
04.09.2016 17:50 21,2 C 23,2 C 20,6 C 21,8 C 21,8 C 0,6 C 72 % 89 % 16 % 1009,2 hPa 0,0 l/m 2,1 km/h (1 Bft) S-SO 157 0 min 15,9 C 21,8 C 0,0 km/h (0 Bft)
04.09.2016 17:55 21,3 C 23,2 C 20,7 C 22,0 C 22,0 C 0,7 C 72 % 89 % 18 % 1009,2 hPa 0,0 l/m 1,8 km/h (1 Bft) S-SW 202 0 min 16,0 C 22,0 C 0,0 km/h (0 Bft)
04.09.2016 18:00 21,5 C 23,2 C 20,7 C 22,3 C 22,3 C 0,8 C 72 % 89 % 21 % 1009,2 hPa 0,0 l/m 2,1 km/h (1 Bft) W 270 0 min 16,2 C 22,3 C 4,7 km/h (1 Bft)
04.09.2016 18:05 21,5 C 23,2 C 20,6 C 22,1 C 22,1 C 0,6 C 71 % 89 % 16 % 1008,8 hPa 0,0 l/m 1,6 km/h (1 Bft) S-SW 202 0 min 16,0 C 22,1 C 0,0 km/h (0 Bft)
04.09.2016 18:12 21,3 C 23,2 C 20,4 C 21,3 C 21,3 C 0,0 C 71 % 89 % 0 % 1008,8 hPa 0,0 l/m 1,1 km/h (1 Bft) N 0 0 min 15,8 C 21,3 C 2,6 km/h (1 Bft)
04.09.2016 18:20 21,1 C 23,3 C 20,3 C 20,9 C 20,6 C 0,0 C 72 % 89 % 0 % 1008,8 hPa 0,0 l/m 0,6 km/h (0 Bft) W-SW 247 0 min 15,8 C 20,6 C 3,9 km/h (1 Bft)
04.09.2016 18:25 20,7 C 23,6 C 19,2 C 20,1 C 18,9 C 0,0 C 74 % 88 % 0 % 1008,9 hPa 0,7 l/m 1,1 km/h (1 Bft) W-SW 247 0 min 15,9 C 18,9 C 3,4 km/h (1 Bft)
04.09.2016 18:30 20,1 C 23,8 C 18,6 C 19,4 C 18,1 C 0,0 C 75 % 89 % 0 % 1008,9 hPa 2,1 l/m 1,8 km/h (1 Bft) N-NO 22 0 min 15,5 C 18,1 C 3,4 km/h (1 Bft)
04.09.2016 18:35 19,4 C 23,7 C 18,0 C 18,7 C 17,4 C 0,0 C 76 % 89 % 0 % 1008,9 hPa 2,1 l/m 1,4 km/h (1 Bft) O-SO 112 0 min 15,1 C 17,4 C 0,0 km/h (0 Bft)
04.09.2016 18:40 18,9 C 23,6 C 17,6 C 18,2 C 16,9 C 0,0 C 76 % 90 % 0 % 1008,9 hPa 0,0 l/m 0,5 km/h (0 Bft) SW 225 0 min 14,6 C 16,9 C 1,8 km/h (1 Bft)
04.09.2016 18:45 18,4 C 23,6 C 17,3 C 17,7 C 16,4 C 0,0 C 77 % 89 % 0 % 1009,0 hPa 1,4 l/m 0,2 km/h (0 Bft) SW 225 0 min 14,3 C 16,4 C 0,0 km/h (0 Bft)
04.09.2016 18:50 18,1 C 23,6 C 17,2 C 17,4 C 16,1 C 0,0 C 77 % 89 % 0 % 1009,0 hPa 0,0 l/m 0,3 km/h (0 Bft) W-SW 247 0 min 14,0 C 16,1 C 0,0 km/h (0 Bft)
04.09.2016 18:55 17,5 C 23,7 C 17,2 C 17,0 C 16,1 C 0,0 C 79 % 88 % 0 % 1009,0 hPa 0,7 l/m 0,6 km/h (0 Bft) SW 225 0 min 13,8 C 16,1 C 1,6 km/h (1 Bft)
04.09.2016 19:00 17,3 C 23,7 C 17,3 C 17,0 C 16,3 C 0,0 C 80 % 86 % 0 % 1009,0 hPa 0,7 l/m 1,4 km/h (1 Bft) S-SW 202 0 min 13,8 C 16,3 C 7,6 km/h (2 Bft)
04.09.2016 19:05 16,9 C 23,8 C 17,1 C 16,7 C 16,4 C 0,0 C 81 % 85 % 0 % 1008,8 hPa 0,0 l/m 2,7 km/h (1 Bft) W-NW 292 0 min 13,6 C 16,4 C 2,9 km/h (1 Bft)
04.09.2016 19:10 16,7 C 23,7 C 16,8 C 16,6 C 16,3 C 0,0 C 82 % 85 % 0 % 1008,8 hPa 0,0 l/m 2,3 km/h (1 Bft) O-SO 112 0 min 13,6 C 16,3 C 3,4 km/h (1 Bft)
04.09.2016 19:15 16,4 C 23,8 C 16,7 C 16,3 C 16,2 C 0,0 C 82 % 84 % 0 % 1008,8 hPa 0,7 l/m 0,5 km/h (0 Bft) O-SO 112 0 min 13,3 C 16,2 C 0,0 km/h (0 Bft)
04.09.2016 19:20 16,2 C 23,8 C 16,7 C 16,2 C 16,1 C 0,0 C 82 % 83 % 0 % 1008,8 hPa 0,0 l/m 0,3 km/h (0 Bft) O-SO 112 0 min 13,1 C 16,1 C 0,0 km/h (0 Bft)
04.09.2016 19:25 16,1 C 23,8 C 16,5 C 16,1 C 16,0 C 0,0 C 82 % 82 % 0 % 1008,4 hPa 0,7 l/m 0,0 km/h (0 Bft) N-NW 337 0 min 13,0 C 16,0 C 0,0 km/h (0 Bft)
04.09.2016 19:30 16,0 C 23,8 C 16,5 C 16,0 C 16,0 C 0,0 C 83 % 82 % 0 % 1008,4 hPa 0,0 l/m 0,0 km/h (0 Bft) S-SW 202 0 min 13,1 C 16,0 C 2,9 km/h (1 Bft)
04.09.2016 19:35 15,9 C 23,8 C 16,3 C 15,9 C 15,8 C 0,0 C 83 % 81 % 0 % 1008,4 hPa 0,7 l/m 1,4 km/h (1 Bft) S-SO 157 0 min 13,0 C 15,8 C 2,7 km/h (1 Bft)
04.09.2016 19:40 15,6 C 23,8 C 16,1 C 15,6 C 15,6 C 0,0 C 83 % 82 % 0 % 1008,4 hPa 0,0 l/m 2,7 km/h (1 Bft) S-SO 157 0 min 12,7 C 15,6 C 1,6 km/h (1 Bft)
04.09.2016 19:45 15,2 C 23,8 C 15,7 C 15,2 C 15,2 C 0,0 C 83 % 82 % 0 % 1008,3 hPa 0,0 l/m 1,8 km/h (1 Bft) SO 135 0 min 12,3 C 15,2 C 0,0 km/h (0 Bft)
04.09.2016 19:50 15,1 C 23,8 C 15,4 C 15,1 C 15,0 C 0,0 C 83 % 82 % 0 % 1008,3 hPa 0,7 l/m 0,3 km/h (0 Bft) SO 135 0 min 12,2 C 15,0 C 0,0 km/h (0 Bft)
04.09.2016 19:55 14,9 C 23,8 C 15,3 C 14,9 C 14,9 C 0,0 C 84 % 82 % 0 % 1008,3 hPa 0,0 l/m 0,2 km/h (0 Bft) S 180 0 min 12,2 C 14,9 C 1,6 km/h (1 Bft)
04.09.2016 20:00 14,7 C 23,8 C 15,2 C 14,8 C 14,8 C 0,1 C 84 % 81 % 0 % 1008,3 hPa 0,0 l/m 0,2 km/h (0 Bft) O-NO 67 0 min 12,0 C 14,8 C 0,0 km/h (0 Bft)
04.09.2016 20:05 14,6 C 23,8 C 15,1 C 14,7 C 14,7 C 0,1 C 84 % 81 % 0 % 1008,4 hPa 0,7 l/m 0,2 km/h (0 Bft) SO 135 0 min 11,9 C 14,7 C 0,0 km/h (0 Bft)
04.09.2016 20:12 14,3 C 23,8 C 15,1 C 14,6 C 14,6 C 0,3 C 85 % 79 % 0 % 1008,4 hPa 0,0 l/m 0,6 km/h (0 Bft) N 0 0 min 11,8 C 14,6 C 3,1 km/h (1 Bft)
04.09.2016 20:20 14,3 C 23,8 C 15,1 C 14,6 C 14,6 C 0,3 C 85 % 79 % 0 % 1008,4 hPa 0,0 l/m 1,0 km/h (0 Bft) W-SW 247 0 min 11,8 C 14,6 C 2,1 km/h (1 Bft)
04.09.2016 20:25 14,3 C 23,8 C 15,2 C 14,6 C 14,6 C 0,3 C 85 % 78 % 0 % 1008,6 hPa 0,0 l/m 0,5 km/h (0 Bft) O-NO 67 0 min 11,8 C 14,6 C 0,0 km/h (0 Bft)
04.09.2016 20:30 14,3 C 23,8 C 15,3 C 14,7 C 14,7 C 0,4 C 85 % 77 % 0 % 1008,6 hPa 0,0 l/m 0,5 km/h (0 Bft) SW 225 0 min 11,8 C 14,7 C 4,3 km/h (1 Bft)
04.09.2016 20:35 14,2 C 23,8 C 15,2 C 14,7 C 14,7 C 0,5 C 86 % 76 % 0 % 1008,6 hPa 0,0 l/m 1,6 km/h (1 Bft) SW 225 0 min 11,9 C 14,7 C 5,3 km/h (1 Bft)
04.09.2016 20:40 14,3 C 23,8 C 15,3 C 14,6 C 14,6 C 0,3 C 86 % 76 % 0 % 1008,6 hPa 0,0 l/m 2,4 km/h (1 Bft) SW 225 0 min 12,0 C 14,6 C 4,3 km/h (1 Bft)
04.09.2016 20:45 14,3 C 23,8 C 15,3 C 14,6 C 14,6 C 0,3 C 86 % 75 % 0 % 1008,7 hPa 0,0 l/m 1,8 km/h (1 Bft) S-SO 157 0 min 12,0 C 14,6 C 0,0 km/h (0 Bft)
04.09.2016 20:50 14,3 C 23,8 C 15,3 C 14,6 C 14,6 C 0,3 C 86 % 75 % 0 % 1008,7 hPa 0,0 l/m 1,1 km/h (1 Bft) S 180 0 min 12,0 C 14,6 C 3,1 km/h (1 Bft)
04.09.2016 20:55 14,2 C 23,8 C 15,3 C 14,6 C 14,6 C 0,4 C 86 % 74 % 0 % 1008,7 hPa 0,7 l/m 1,3 km/h (1 Bft) W-SW 247 0 min 11,9 C 14,6 C 1,9 km/h (1 Bft)
04.09.2016 21:00 14,1 C 23,8 C 15,2 C 14,6 C 14,6 C 0,5 C 86 % 74 % 0 % 1008,7 hPa 0,0 l/m 1,8 km/h (1 Bft) SO 135 0 min 11,8 C 14,6 C 5,3 km/h (1 Bft)
04.09.2016 21:05 14,1 C 23,8 C 15,3 C 14,6 C 14,6 C 0,5 C 86 % 73 % 0 % 1008,8 hPa 0,0 l/m 1,8 km/h (1 Bft) S 180 0 min 11,8 C 14,6 C 3,7 km/h (1 Bft)
04.09.2016 21:10 14,1 C 23,8 C 15,3 C 14,7 C 14,7 C 0,6 C 87 % 73 % 0 % 1008,8 hPa 0,0 l/m 2,3 km/h (1 Bft) S 180 0 min 12,0 C 14,7 C 3,2 km/h (1 Bft)
04.09.2016 21:15 14,3 C 23,8 C 15,5 C 14,8 C 14,8 C 0,5 C 87 % 73 % 0 % 1008,8 hPa 0,0 l/m 3,4 km/h (1 Bft) S-SO 157 0 min 12,2 C 14,8 C 3,9 km/h (1 Bft)
04.09.2016 21:20 14,3 C 23,8 C 15,5 C 14,8 C 14,8 C 0,5 C 87 % 72 % 0 % 1008,8 hPa 0,0 l/m 3,4 km/h (1 Bft) W-SW 247 0 min 12,2 C 14,8 C 0,0 km/h (0 Bft)
04.09.2016 21:25 14,3 C 23,8 C 15,4 C 14,8 C 14,8 C 0,5 C 87 % 72 % 0 % 1008,8 hPa 0,0 l/m 2,1 km/h (1 Bft) SW 225 0 min 12,2 C 14,8 C 2,1 km/h (1 Bft)
04.09.2016 21:30 14,3 C 23,8 C 15,5 C 14,9 C 14,9 C 0,6 C 87 % 72 % 0 % 1008,8 hPa 0,0 l/m 1,3 km/h (1 Bft) S-SO 157 0 min 12,2 C 14,9 C 1,9 km/h (1 Bft)
04.09.2016 21:35 14,4 C 23,8 C 15,5 C 14,9 C 14,9 C 0,5 C 87 % 71 % 0 % 1008,8 hPa 0,0 l/m 0,5 km/h (0 Bft) S 180 0 min 12,3 C 14,9 C 0,0 km/h (0 Bft)
04.09.2016 21:40 14,3 C 23,8 C 15,5 C 14,9 C 14,9 C 0,6 C 87 % 71 % 0 % 1008,8 hPa 0,0 l/m 0,3 km/h (0 Bft) NW 315 0 min 12,2 C 14,9 C 1,6 km/h (1 Bft)
04.09.2016 21:45 14,5 C 23,8 C 15,6 C 15,0 C 15,0 C 0,5 C 87 % 71 % 0 % 1009,2 hPa 0,0 l/m 0,3 km/h (0 Bft) O-SO 112 0 min 12,4 C 15,0 C 0,0 km/h (0 Bft)
04.09.2016 21:50 14,5 C 23,8 C 15,6 C 15,0 C 15,0 C 0,5 C 88 % 71 % 0 % 1009,2 hPa 0,0 l/m 0,2 km/h (0 Bft) O-SO 112 0 min 12,5 C 15,0 C 0,0 km/h (0 Bft)
04.09.2016 21:55 14,4 C 23,8 C 15,7 C 15,0 C 15,0 C 0,6 C 88 % 71 % 0 % 1009,2 hPa 0,0 l/m 0,0 km/h (0 Bft) W-SW 247 0 min 12,4 C 15,0 C 0,0 km/h (0 Bft)
04.09.2016 22:00 14,5 C 23,8 C 15,6 C 15,1 C 15,1 C 0,6 C 88 % 71 % 0 % 1009,2 hPa 0,0 l/m 0,2 km/h (0 Bft) S 180 0 min 12,5 C 15,1 C 0,0 km/h (0 Bft)
04.09.2016 22:05 14,5 C 23,8 C 15,7 C 15,1 C 15,1 C 0,6 C 88 % 71 % 0 % 1009,3 hPa 0,0 l/m 0,3 km/h (0 Bft) S-SO 157 0 min 12,5 C 15,1 C 0,0 km/h (0 Bft)
04.09.2016 22:12 14,6 C 25,2 C 15,7 C 15,2 C 15,2 C 0,6 C 88 % 71 % 0 % 1009,3 hPa 0,0 l/m 0,2 km/h (0 Bft) N 0 0 min 12,6 C 15,2 C 0,0 km/h (0 Bft)
04.09.2016 22:20 14,6 C 25,2 C 15,8 C 15,2 C 15,2 C 0,6 C 88 % 71 % 0 % 1009,3 hPa 0,0 l/m 0,2 km/h (0 Bft) S 180 0 min 12,6 C 15,2 C 1,6 km/h (1 Bft)
04.09.2016 22:25 14,6 C 25,3 C 15,8 C 15,2 C 15,2 C 0,6 C 88 % 71 % 0 % 1009,3 hPa 0,0 l/m 0,3 km/h (0 Bft) N 360 0 min 12,6 C 15,2 C 2,6 km/h (1 Bft)
04.09.2016 22:30 14,7 C 25,3 C 15,7 C 15,2 C 15,2 C 0,5 C 88 % 71 % 0 % 1009,3 hPa 0,0 l/m 0,5 km/h (0 Bft) S-SO 157 0 min 12,7 C 15,2 C 0,0 km/h (0 Bft)
04.09.2016 22:35 14,7 C 25,3 C 15,8 C 15,2 C 15,2 C 0,5 C 88 % 71 % 0 % 1009,3 hPa 0,0 l/m 0,5 km/h (0 Bft) S 180 0 min 12,7 C 15,2 C 1,8 km/h (1 Bft)
04.09.2016 22:40 14,7 C 25,3 C 15,8 C 15,2 C 15,2 C 0,5 C 88 % 71 % 0 % 1009,3 hPa 0,0 l/m 0,5 km/h (0 Bft) NW 315 0 min 12,7 C 15,2 C 0,0 km/h (0 Bft)
04.09.2016 22:45 14,7 C 25,4 C 15,8 C 15,2 C 15,2 C 0,5 C 88 % 71 % 0 % 1009,6 hPa 0,0 l/m 0,8 km/h (0 Bft) W-SW 247 0 min 12,7 C 15,2 C 0,0 km/h (0 Bft)
04.09.2016 22:50 14,7 C 25,4 C 15,7 C 15,2 C 15,2 C 0,5 C 88 % 71 % 0 % 1009,6 hPa 0,0 l/m 1,3 km/h (1 Bft) S-SW 202 0 min 12,7 C 15,2 C 3,5 km/h (1 Bft)
04.09.2016 22:55 14,6 C 25,5 C 15,7 C 15,1 C 15,1 C 0,5 C 88 % 71 % 0 % 1009,6 hPa 0,0 l/m 1,9 km/h (1 Bft) S-SW 202 0 min 12,6 C 15,1 C 3,7 km/h (1 Bft)
04.09.2016 23:00 14,7 C 25,6 C 15,6 C 15,0 C 15,0 C 0,3 C 88 % 71 % 0 % 1009,6 hPa 0,0 l/m 2,3 km/h (1 Bft) W-SW 247 0 min 12,7 C 15,0 C 3,5 km/h (1 Bft)
04.09.2016 23:05 14,5 C 26,1 C 15,5 C 15,0 C 15,0 C 0,5 C 88 % 71 % 0 % 1009,7 hPa 0,0 l/m 2,3 km/h (1 Bft) W-NW 292 0 min 12,5 C 15,0 C 4,5 km/h (1 Bft)
04.09.2016 23:10 14,4 C 26,3 C 15,5 C 14,9 C 14,9 C 0,5 C 88 % 71 % 0 % 1009,7 hPa 0,0 l/m 2,1 km/h (1 Bft) SW 225 0 min 12,4 C 14,9 C 0,0 km/h (0 Bft)
04.09.2016 23:15 14,4 C 26,4 C 15,4 C 14,8 C 14,8 C 0,4 C 88 % 71 % 0 % 1009,7 hPa 0,0 l/m 1,3 km/h (1 Bft) S 180 0 min 12,4 C 14,8 C 0,0 km/h (0 Bft)
04.09.2016 23:20 14,5 C 26,4 C 15,5 C 14,8 C 14,8 C 0,3 C 88 % 71 % 0 % 1009,7 hPa 0,0 l/m 1,1 km/h (1 Bft) NW 315 0 min 12,5 C 14,8 C 2,1 km/h (1 Bft)
04.09.2016 23:30 14,3 C 26,4 C 15,4 C 14,7 C 14,7 C 0,4 C 88 % 71 % 0 % 1009,7 hPa 0,0 l/m 0,3 km/h (0 Bft) W 270 0 min 12,3 C 14,7 C 2,1 km/h (1 Bft)
04.09.2016 23:35 14,3 C 26,5 C 15,5 C 14,7 C 14,7 C 0,4 C 88 % 71 % 0 % 1009,7 hPa 0,0 l/m 0,3 km/h (0 Bft) SW 225 0 min 12,3 C 14,7 C 0,0 km/h (0 Bft)
04.09.2016 23:40 14,3 C 26,5 C 15,4 C 14,7 C 14,7 C 0,4 C 88 % 71 % 0 % 1009,7 hPa 0,0 l/m 0,3 km/h (0 Bft) W-SW 247 0 min 12,3 C 14,7 C 0,0 km/h (0 Bft)
04.09.2016 23:45 14,4 C 26,5 C 15,4 C 14,8 C 14,8 C 0,4 C 88 % 71 % 0 % 1009,5 hPa 0,0 l/m 0,2 km/h (0 Bft) S-SO 157 0 min 12,4 C 14,8 C 0,0 km/h (0 Bft)
04.09.2016 23:50 14,4 C 26,5 C 15,4 C 14,8 C 14,8 C 0,4 C 89 % 71 % 0 % 1009,5 hPa 0,0 l/m 0,0 km/h (0 Bft) S-SO 157 0 min 12,6 C 14,8 C 0,0 km/h (0 Bft)
04.09.2016 23:55 14,4 C 26,5 C 15,4 C 14,8 C 14,8 C 0,4 C 89 % 71 % 0 % 1009,5 hPa 0,7 l/m 0,0 km/h (0 Bft) SW 225 0 min 12,6 C 14,8 C 0,0 km/h (0 Bft)
_ Min-Zeit 03:15 08:50 20:05 03:05 03:05 00:00 10:45 12:30 00:00 19:45 - 00:00 - - - 03:15 03:05 00:00
Minimum _ 14,0 C 22,8 C 15,1 C 14,3 C 14,3 C 0,0 C 55 % 58 % 0 % 1008,3 hPa - 0,0 km/h (0 Bft) - - - 10,8 C 14,3 C 0,0 km/h (0 Bft)
_ Max-Zeit 12:25 23:35 12:25 08:50 08:50 15:40 23:50 18:40 08:25 00:00 18:30 13:05 - - 08:20 17:00 08:50 11:55
Maximum _ 24,4 C 26,5 C 23,6 C 28,2 C 28,2 C 6,2 C 89 % 90 % 100 % 1014,6 hPa 2,1 l/m 5,6 km/h
W-SW (1 Bft)
- - 8 min 16,5 C 28,2 C 15,0 km/h
W-SW (3 Bft)
Durchschnitt _ 18,3 C 23,4 C 18,5 C 19,3 C 19,3 C 1,1 C 75 % 76 % 20 % 1011,2 hPa #15,8 l/m 1,4 km/h (1 Bft) S - #2:08 h 13,6 C 19,3 C 2,3 km/h (1 Bft)
2016 www.wetterstation-wechselburg.de